createdAt,value
2018-09-11T00:00:12.240Z,96296.4
2018-09-11T00:01:14.674Z,96295.8
2018-09-11T00:02:17.109Z,96297.9
2018-09-11T00:03:19.551Z,96299.3
2018-09-11T00:04:21.989Z,96298.5
2018-09-11T00:05:24.145Z,96300.7
2018-09-11T00:06:26.576Z,96300.3
2018-09-11T00:07:29.016Z,96299.6
2018-09-11T00:08:31.446Z,96299.9
2018-09-11T00:09:33.883Z,96303.7
2018-09-11T00:10:36.331Z,96302
2018-09-11T00:11:38.769Z,96301.8
2018-09-11T00:12:41.217Z,96306.2
2018-09-11T00:13:43.378Z,96306.1
2018-09-11T00:14:45.807Z,96309
2018-09-11T00:15:47.981Z,96306.4
2018-09-11T00:16:50.405Z,96305.5
2018-09-11T00:17:52.846Z,96309.3
2018-09-11T00:18:55.274Z,96307.2
2018-09-11T00:19:57.703Z,96305.4
2018-09-11T00:21:00.133Z,96305.7
2018-09-11T00:22:02.563Z,96301.6
2018-09-11T00:23:05.000Z,96303.6
2018-09-11T00:24:07.429Z,96300.4
2018-09-11T00:25:09.861Z,96304.4
2018-09-11T00:26:12.295Z,96304.4
2018-09-11T00:27:14.720Z,96301.7
2018-09-11T00:28:17.152Z,96307.3
2018-09-11T00:29:19.582Z,96309.3
2018-09-11T00:30:22.021Z,96309.5
2018-09-11T00:31:24.469Z,96308.5
2018-09-11T00:32:26.900Z,96309.9
2018-09-11T00:33:29.342Z,96308.1
2018-09-11T00:34:31.782Z,96308.9
2018-09-11T00:35:34.218Z,96304.5
2018-09-11T00:36:36.660Z,96308.2
2018-09-11T00:37:39.101Z,96304
2018-09-11T00:38:41.531Z,96307.2
2018-09-11T00:39:43.959Z,96307
2018-09-11T00:40:46.110Z,96300.4
2018-09-11T00:41:48.551Z,96299.9
2018-09-11T00:42:50.987Z,96298
2018-09-11T00:43:53.428Z,96298.3
2018-09-11T00:44:55.570Z,96299.8
2018-09-11T00:45:57.723Z,96297.5
2018-09-11T00:47:00.164Z,96297.7
2018-09-11T00:48:02.595Z,96298.6
2018-09-11T00:49:05.032Z,96302
2018-09-11T00:50:07.462Z,96301.8
2018-09-11T00:51:09.887Z,96301.2
2018-09-11T00:52:12.315Z,96307
2018-09-11T00:53:14.744Z,96302.6
2018-09-11T00:54:17.173Z,96302.9
2018-09-11T00:55:19.617Z,96301.1
2018-09-11T00:56:21.768Z,96298.9
2018-09-11T00:57:24.201Z,96296.5
2018-09-11T00:58:26.644Z,96298.3
2018-09-11T00:59:29.073Z,96289.1
2018-09-11T01:00:31.512Z,96287
2018-09-11T01:01:33.942Z,96291.5
2018-09-11T01:02:36.365Z,96290.7
2018-09-11T01:03:38.814Z,96294.3
2018-09-11T01:04:41.243Z,96290.7
2018-09-11T01:05:43.674Z,96285.3
2018-09-11T01:06:45.827Z,96288.9
2018-09-11T01:07:48.259Z,96288.3
2018-09-11T01:08:50.700Z,96292
2018-09-11T01:09:53.141Z,96290.5
2018-09-11T01:10:55.572Z,96289.9
2018-09-11T01:11:57.998Z,96286.7
2018-09-11T01:13:00.428Z,96287.7
2018-09-11T01:14:02.861Z,96283.9
2018-09-11T01:15:05.289Z,96284.7
2018-09-11T01:16:07.733Z,96285.8
2018-09-11T01:17:10.167Z,96288.9
2018-09-11T01:18:12.592Z,96291.3
2018-09-11T01:19:15.031Z,96293.4
2018-09-11T01:20:17.464Z,96298.5
2018-09-11T01:21:19.904Z,96296.1
2018-09-11T01:22:22.333Z,96296.1
2018-09-11T01:23:24.784Z,96295.6
2018-09-11T01:24:27.214Z,96295.6
2018-09-11T01:25:29.643Z,96296.5
2018-09-11T01:26:32.072Z,96293.6
2018-09-11T01:27:34.503Z,96293.7
2018-09-11T01:28:36.955Z,96292.5
2018-09-11T01:29:39.394Z,96290.1
2018-09-11T01:30:41.828Z,96286.5
2018-09-11T01:31:44.259Z,96287
2018-09-11T01:32:46.698Z,96290.4
2018-09-11T01:33:48.872Z,96289.3
2018-09-11T01:34:51.333Z,96291.6
2018-09-11T01:35:53.795Z,96293.6
2018-09-11T01:36:56.253Z,96290.6
2018-09-11T01:37:58.410Z,96292.6
2018-09-11T01:39:00.855Z,96291.3
2018-09-11T01:40:03.293Z,96289.3
2018-09-11T01:41:05.721Z,96291.3
2018-09-11T01:42:08.148Z,96290
2018-09-11T01:43:10.582Z,96294
2018-09-11T01:44:13.013Z,96294.1
2018-09-11T01:45:15.473Z,96296.5
2018-09-11T01:46:17.914Z,96295.9
2018-09-11T01:47:20.343Z,96297.7
2018-09-11T01:48:22.773Z,96296.5
2018-09-11T01:49:25.219Z,96297.4
2018-09-11T01:50:27.650Z,96297.4
2018-09-11T01:51:30.095Z,96298.8
2018-09-11T01:52:32.563Z,96295.2
2018-09-11T01:53:34.985Z,96300.2
2018-09-11T01:54:37.419Z,96295.7
2018-09-11T01:55:39.582Z,96295.6
2018-09-11T01:56:42.012Z,96296
2018-09-11T01:57:43.898Z,96298.8
2018-09-11T01:58:46.059Z,96299
2018-09-11T01:59:48.492Z,96302
2018-09-11T02:00:50.920Z,96302.7
2018-09-11T02:01:53.355Z,96307.9
2018-09-11T02:02:55.790Z,96303.1
2018-09-11T02:03:58.223Z,96306.8
2018-09-11T02:05:00.661Z,96304.4
2018-09-11T02:06:03.108Z,96301.5
2018-09-11T02:07:05.538Z,96305.9
2018-09-11T02:08:07.979Z,96308.1
2018-09-11T02:09:10.399Z,96309.6
2018-09-11T02:10:12.823Z,96308.8
2018-09-11T02:11:15.258Z,96307.7
2018-09-11T02:12:17.699Z,96314.3
2018-09-11T02:13:20.127Z,96310.6
2018-09-11T02:14:22.550Z,96306.9
2018-09-11T02:15:24.984Z,96312
2018-09-11T02:16:27.419Z,96310.7
2018-09-11T02:17:29.855Z,96314.1
2018-09-11T02:18:32.315Z,96316.1
2018-09-11T02:19:34.746Z,96313.8
2018-09-11T02:20:37.186Z,96313.6
2018-09-11T02:21:39.354Z,96311
2018-09-11T02:22:41.781Z,96311.6
2018-09-11T02:23:44.211Z,96311.7
2018-09-11T02:24:46.644Z,96310.7
2018-09-11T02:25:49.090Z,96307.8
2018-09-11T02:26:51.509Z,96315.2
2018-09-11T02:27:53.966Z,96306.8
2018-09-11T02:28:56.396Z,96312.7
2018-09-11T02:29:58.873Z,96312.6
2018-09-11T02:31:00.752Z,96310.1
2018-09-11T02:32:03.184Z,96309.4
2018-09-11T02:33:05.606Z,96313.2
2018-09-11T02:34:08.047Z,96309.5
2018-09-11T02:35:10.478Z,96311.1
2018-09-11T02:36:12.915Z,96313.3
2018-09-11T02:37:15.343Z,96314.7
2018-09-11T02:38:17.769Z,96314.4
2018-09-11T02:39:20.209Z,96313.3
2018-09-11T02:40:22.657Z,96318.5
2018-09-11T02:41:25.083Z,96321.2
2018-09-11T02:42:27.242Z,96316.8
2018-09-11T02:43:29.672Z,96317.9
2018-09-11T02:44:32.133Z,96318.1
2018-09-11T02:45:34.565Z,96318.6
2018-09-11T02:46:36.999Z,96315.4
2018-09-11T02:47:39.473Z,96317.4
2018-09-11T02:48:41.925Z,96318.9
2018-09-11T02:49:44.350Z,96322.8
2018-09-11T02:50:46.780Z,96319.3
2018-09-11T02:51:48.925Z,96326.7
2018-09-11T02:52:51.365Z,96333.1
2018-09-11T02:53:53.541Z,96337.3
2018-09-11T02:54:56.011Z,96325.9
2018-09-11T02:55:58.435Z,96329.2
2018-09-11T02:57:00.605Z,96326.3
2018-09-11T02:58:02.776Z,96324.7
2018-09-11T02:59:05.223Z,96332.4
2018-09-11T03:00:07.675Z,96329
2018-09-11T03:01:10.115Z,96332.7
2018-09-11T03:02:12.545Z,96332.1
2018-09-11T03:03:14.991Z,96337.1
2018-09-11T03:04:17.141Z,96335.3
2018-09-11T03:05:19.301Z,96328.5
2018-09-11T03:06:21.738Z,96332.6
2018-09-11T03:07:24.165Z,96327.8
2018-09-11T03:08:26.608Z,96330.7
2018-09-11T03:09:28.778Z,96333.5
2018-09-11T03:10:31.224Z,96337.6
2018-09-11T03:11:33.645Z,96333.8
2018-09-11T03:12:36.077Z,96333.6
2018-09-11T03:13:38.525Z,96326.2
2018-09-11T03:14:40.958Z,96332.1
2018-09-11T03:15:43.396Z,96324.6
2018-09-11T03:16:45.822Z,96327
2018-09-11T03:17:47.962Z,96322.8
2018-09-11T03:18:50.835Z,96319.1
2018-09-11T03:19:53.373Z,96321.5
2018-09-11T03:20:55.836Z,96316.7
2018-09-11T03:21:58.265Z,96318.3
2018-09-11T03:23:00.704Z,96320.7
2018-09-11T03:24:03.139Z,96320.8
2018-09-11T03:25:05.565Z,96325.4
2018-09-11T03:26:08.016Z,96326.3
2018-09-11T03:27:10.440Z,96322.5
2018-09-11T03:28:12.893Z,96328.6
2018-09-11T03:29:15.314Z,96327.5
2018-09-11T03:30:17.746Z,96327.6
2018-09-11T03:31:20.176Z,96325.7
2018-09-11T03:32:22.603Z,96328.8
2018-09-11T03:33:25.027Z,96327
2018-09-11T03:34:27.469Z,96327
2018-09-11T03:35:29.902Z,96319.6
2018-09-11T03:36:32.334Z,96325.4
2018-09-11T03:37:34.764Z,96324.6
2018-09-11T03:38:37.213Z,96327
2018-09-11T03:39:39.649Z,96323.9
2018-09-11T03:40:42.076Z,96328.1
2018-09-11T03:41:44.494Z,96328.6
2018-09-11T03:42:46.654Z,96332.9
2018-09-11T03:43:49.093Z,96332.2
2018-09-11T03:44:51.223Z,96330.5
2018-09-11T03:45:53.375Z,96331.1
2018-09-11T03:46:55.284Z,96334.2
2018-09-11T03:47:57.715Z,96331.4
2018-09-11T03:48:59.862Z,96335.2
2018-09-11T03:50:02.280Z,96330.5
2018-09-11T03:51:04.711Z,96331.2
2018-09-11T03:52:07.158Z,96335.8
2018-09-11T03:53:09.594Z,96333.4
2018-09-11T03:54:12.054Z,96336.6
2018-09-11T03:55:14.497Z,96330.9
2018-09-11T03:56:16.924Z,96338.4
2018-09-11T03:57:19.377Z,96337.9
2018-09-11T03:58:21.814Z,96336.5
2018-09-11T03:59:24.555Z,96335.9
2018-09-11T04:00:27.176Z,96337.2
2018-09-11T04:01:29.616Z,96327.8
2018-09-11T04:02:32.053Z,96332.5
2018-09-11T04:03:34.496Z,96330.7
2018-09-11T04:04:36.924Z,96333.7
2018-09-11T04:05:39.996Z,96331.9
2018-09-11T04:06:42.428Z,96332.9
2018-09-11T04:07:44.861Z,96334.5
2018-09-11T04:08:47.292Z,96334.8
2018-09-11T04:09:49.724Z,96331.3
2018-09-11T04:10:52.154Z,96333.7
2018-09-11T04:11:54.603Z,96335.3
2018-09-11T04:12:56.763Z,96342.4
2018-09-11T04:13:59.208Z,96332.8
2018-09-11T04:15:01.686Z,96334.7
2018-09-11T04:16:04.128Z,96340.6
2018-09-11T04:17:06.551Z,96344.5
2018-09-11T04:18:08.992Z,96344.9
2018-09-11T04:19:11.442Z,96344.7
2018-09-11T04:20:13.874Z,96342.6
2018-09-11T04:21:16.306Z,96344.7
2018-09-11T04:22:18.748Z,96343.8
2018-09-11T04:23:21.202Z,96344.4
2018-09-11T04:24:23.642Z,96347
2018-09-11T04:25:26.152Z,96348.6
2018-09-11T04:26:28.579Z,96347.2
2018-09-11T04:27:31.004Z,96348
2018-09-11T04:28:33.436Z,96355.4
2018-09-11T04:29:35.875Z,96353.3
2018-09-11T04:30:38.304Z,96351.5
2018-09-11T04:31:40.738Z,96351.4
2018-09-11T04:32:43.174Z,96351.3
2018-09-11T04:33:45.319Z,96355.5
2018-09-11T04:34:47.743Z,96354.2
2018-09-11T04:35:50.172Z,96351.8
2018-09-11T04:36:52.607Z,96351.8
2018-09-11T04:37:55.028Z,96359.4
2018-09-11T04:38:57.475Z,96354.8
2018-09-11T04:39:59.904Z,96352.7
2018-09-11T04:41:02.335Z,96348.9
2018-09-11T04:42:04.764Z,96355.1
2018-09-11T04:43:07.631Z,96352.9
2018-09-11T04:44:10.184Z,96351.5
2018-09-11T04:45:12.337Z,96352.2
2018-09-11T04:46:14.766Z,96359.3
2018-09-11T04:47:16.911Z,96356.9
2018-09-11T04:48:19.090Z,96361.6
2018-09-11T04:49:21.264Z,96362.3
2018-09-11T04:50:23.695Z,96359.4
2018-09-11T04:51:26.152Z,96363.3
2018-09-11T04:52:28.579Z,96361.7
2018-09-11T04:53:31.013Z,96364.2
2018-09-11T04:54:33.461Z,96363.8
2018-09-11T04:55:35.906Z,96369.4
2018-09-11T04:56:38.076Z,96368.7
2018-09-11T04:57:40.502Z,96369.7
2018-09-11T04:58:42.680Z,96370.8
2018-09-11T04:59:45.104Z,96374.5
2018-09-11T05:00:47.269Z,96373.1
2018-09-11T05:01:49.702Z,96376.7
2018-09-11T05:02:52.137Z,96381.4
2018-09-11T05:03:54.569Z,96380.9
2018-09-11T05:04:57.024Z,96378.8
2018-09-11T05:05:59.474Z,96384
2018-09-11T05:07:01.919Z,96386
2018-09-11T05:08:04.400Z,96388.6
2018-09-11T05:09:06.851Z,96391.5
2018-09-11T05:10:09.300Z,96393.9
2018-09-11T05:11:11.756Z,96394.6
2018-09-11T05:12:13.919Z,96397.6
2018-09-11T05:13:16.347Z,96397
2018-09-11T05:14:18.785Z,96398
2018-09-11T05:15:20.954Z,96400.4
2018-09-11T05:16:23.399Z,96400.8
2018-09-11T05:17:25.844Z,96404.1
2018-09-11T05:18:28.288Z,96403.6
2018-09-11T05:19:30.440Z,96406.3
2018-09-11T05:20:32.862Z,96411.3
2018-09-11T05:21:35.304Z,96407.3
2018-09-11T05:22:37.742Z,96411.8
2018-09-11T05:23:40.187Z,96412.6
2018-09-11T05:24:42.622Z,96413.4
2018-09-11T05:25:45.070Z,96416.2
2018-09-11T05:26:47.494Z,96415.1
2018-09-11T05:27:49.959Z,96415.2
2018-09-11T05:28:52.396Z,96416.7
2018-09-11T05:29:54.825Z,96414.8
2018-09-11T05:30:57.253Z,96416.6
2018-09-11T05:31:59.704Z,96416.7
2018-09-11T05:33:02.126Z,96421.8
2018-09-11T05:34:04.561Z,96421.2
2018-09-11T05:35:06.995Z,96424.4
2018-09-11T05:36:09.437Z,96427.1
2018-09-11T05:37:11.877Z,96429
2018-09-11T05:38:14.324Z,96431.3
2018-09-11T05:39:16.770Z,96430.8
2018-09-11T05:40:19.211Z,96431.9
2018-09-11T05:41:21.710Z,96430.5
2018-09-11T05:42:24.155Z,96425.4
2018-09-11T05:43:26.591Z,96428.2
2018-09-11T05:44:29.044Z,96429.6
2018-09-11T05:45:31.486Z,96431.4
2018-09-11T05:46:33.966Z,96432
2018-09-11T05:47:36.387Z,96435.2
2018-09-11T05:48:38.810Z,96430.2
2018-09-11T05:49:40.955Z,96433.9
2018-09-11T05:50:43.406Z,96437.1
2018-09-11T05:51:45.838Z,96431.2
2018-09-11T05:52:48.269Z,96431.1
2018-09-11T05:53:50.691Z,96434.8
2018-09-11T05:54:53.118Z,96432.8
2018-09-11T05:55:55.557Z,96433
2018-09-11T05:56:57.983Z,96433.8
2018-09-11T05:58:00.424Z,96432
2018-09-11T05:59:02.848Z,96435.9
2018-09-11T06:00:05.295Z,96428.5
2018-09-11T06:01:07.722Z,96433.7
2018-09-11T06:02:10.154Z,96431.4
2018-09-11T06:03:12.572Z,96432.4
2018-09-11T06:04:15.012Z,96433
2018-09-11T06:05:17.444Z,96433.3
2018-09-11T06:06:19.882Z,96438.8
2018-09-11T06:07:22.063Z,96437.5
2018-09-11T06:08:24.228Z,96433.1
2018-09-11T06:09:26.661Z,96436.7
2018-09-11T06:10:29.155Z,96435.9
2018-09-11T06:11:31.034Z,96437.1
2018-09-11T06:12:33.464Z,96438.3
2018-09-11T06:13:35.936Z,96441.8
2018-09-11T06:14:38.378Z,96440
2018-09-11T06:15:40.818Z,96435
2018-09-11T06:16:43.263Z,96439.1
2018-09-11T06:17:45.695Z,96439.3
2018-09-11T06:18:48.152Z,96437.3
2018-09-11T06:19:50.579Z,96435
2018-09-11T06:20:53.013Z,96432.1
2018-09-11T06:21:55.444Z,96437.3
2018-09-11T06:22:57.892Z,96432.5
2018-09-11T06:24:00.329Z,96433
2018-09-11T06:25:02.750Z,96434.6
2018-09-11T06:26:05.182Z,96433.8
2018-09-11T06:27:07.610Z,96428.6
2018-09-11T06:28:10.043Z,96428
2018-09-11T06:29:12.720Z,96430.8
2018-09-11T06:30:15.281Z,96429.2
2018-09-11T06:31:17.708Z,96423.5
2018-09-11T06:32:20.175Z,96427.6
2018-09-11T06:33:22.631Z,96425.6
2018-09-11T06:34:25.064Z,96425.5
2018-09-11T06:35:27.772Z,96423.1
2018-09-11T06:36:30.314Z,96424
2018-09-11T06:37:32.738Z,96426.6
2018-09-11T06:38:35.182Z,96423.9
2018-09-11T06:39:37.614Z,96423.4
2018-09-11T06:40:40.073Z,96428.2
2018-09-11T06:41:42.490Z,96432.3
2018-09-11T06:42:44.639Z,96433.1
2018-09-11T06:43:47.072Z,96433.4
2018-09-11T06:44:49.831Z,96435.9
2018-09-11T06:45:52.034Z,96435
2018-09-11T06:46:54.559Z,96437.3
2018-09-11T06:47:57.086Z,96439.3
2018-09-11T06:48:59.517Z,96439.9
2018-09-11T06:50:01.971Z,96437.3
2018-09-11T06:51:04.400Z,96442.6
2018-09-11T06:52:06.825Z,96443.5
2018-09-11T06:53:09.254Z,96442.9
2018-09-11T06:54:11.698Z,96447.3
2018-09-11T06:55:13.863Z,96447
2018-09-11T06:56:16.323Z,96446
2018-09-11T06:57:18.763Z,96446
2018-09-11T06:58:21.214Z,96448.4
2018-09-11T06:59:23.656Z,96444.8
2018-09-11T07:00:26.122Z,96444.6
2018-09-11T07:01:28.584Z,96445
2018-09-11T07:02:31.006Z,96447.1
2018-09-11T07:03:33.455Z,96445.4
2018-09-11T07:04:35.897Z,96442
2018-09-11T07:05:38.054Z,96443.4
2018-09-11T07:06:40.478Z,96444.1
2018-09-11T07:07:42.914Z,96445
2018-09-11T07:08:45.067Z,96445.8
2018-09-11T07:09:47.495Z,96443.2
2018-09-11T07:10:49.945Z,96445.5
2018-09-11T07:11:52.405Z,96449.4
2018-09-11T07:12:54.883Z,96451.7
2018-09-11T07:13:57.308Z,96448.4
2018-09-11T07:14:59.732Z,96456
2018-09-11T07:16:02.173Z,96450.7
2018-09-11T07:17:04.604Z,96453
2018-09-11T07:18:07.043Z,96453
2018-09-11T07:19:09.469Z,96452.2
2018-09-11T07:20:13.605Z,96453.7
2018-09-11T07:21:16.789Z,96452.5
2018-09-11T07:22:19.223Z,96457.3
2018-09-11T07:23:21.684Z,96456.3
2018-09-11T07:24:24.127Z,96456
2018-09-11T07:25:26.582Z,96459.5
2018-09-11T07:26:29.017Z,96464.1
2018-09-11T07:27:31.481Z,96459.3
2018-09-11T07:28:33.921Z,96464.2
2018-09-11T07:29:36.351Z,96461.4
2018-09-11T07:30:38.799Z,96460.6
2018-09-11T07:31:41.232Z,96462.2
2018-09-11T07:32:43.666Z,96464.3
2018-09-11T07:33:46.111Z,96464.7
2018-09-11T07:34:48.537Z,96465.4
2018-09-11T07:35:50.968Z,96465.1
2018-09-11T07:36:53.401Z,96466.2
2018-09-11T07:37:56.275Z,96472.5
2018-09-11T07:38:58.820Z,96468.5
2018-09-11T07:40:01.263Z,96469.6
2018-09-11T07:41:03.711Z,96468.4
2018-09-11T07:42:06.156Z,96468.9
2018-09-11T07:43:08.591Z,96470.3
2018-09-11T07:44:10.778Z,96471.8
2018-09-11T07:45:13.211Z,96467.2
2018-09-11T07:46:15.652Z,96470
2018-09-11T07:47:18.078Z,96468.1
2018-09-11T07:48:20.504Z,96472.3
2018-09-11T07:49:22.932Z,96472.5
2018-09-11T07:50:25.373Z,96474.3
2018-09-11T07:51:27.814Z,96474.8
2018-09-11T07:52:30.713Z,96474.5
2018-09-11T07:53:33.285Z,96475.6
2018-09-11T07:54:35.736Z,96474.5
2018-09-11T07:55:38.166Z,96478.5
2018-09-11T07:56:40.603Z,96476
2018-09-11T07:57:43.579Z,96474.7
2018-09-11T07:58:46.192Z,96475.8
2018-09-11T07:59:48.626Z,96479.8
2018-09-11T08:00:50.786Z,96479.1
2018-09-11T08:01:53.234Z,96479.3
2018-09-11T08:02:55.794Z,96482.6
2018-09-11T08:03:58.242Z,96477.7
2018-09-11T08:05:00.751Z,96484.4
2018-09-11T08:06:03.234Z,96483.1
2018-09-11T08:07:05.678Z,96484.9
2018-09-11T08:08:08.109Z,96486
2018-09-11T08:09:10.541Z,96487.7
2018-09-11T08:10:13.017Z,96487.3
2018-09-11T08:11:15.453Z,96491.2
2018-09-11T08:12:17.905Z,96491
2018-09-11T08:13:20.356Z,96487.6
2018-09-11T08:14:22.789Z,96492
2018-09-11T08:15:25.237Z,96490.8
2018-09-11T08:16:27.993Z,96491.5
2018-09-11T08:17:30.434Z,96491.6
2018-09-11T08:18:32.890Z,96490.1
2018-09-11T08:19:35.333Z,96496.9
2018-09-11T08:20:37.845Z,96494.6
2018-09-11T08:21:40.289Z,96491.7
2018-09-11T08:22:42.725Z,96491.3
2018-09-11T08:23:44.885Z,96492.5
2018-09-11T08:24:47.326Z,96490.8
2018-09-11T08:25:49.778Z,96491.2
2018-09-11T08:26:52.235Z,96494
2018-09-11T08:27:54.667Z,96494.2
2018-09-11T08:28:57.107Z,96491.9
2018-09-11T08:29:59.535Z,96496.6
2018-09-11T08:31:01.972Z,96495
2018-09-11T08:32:04.410Z,96494.8
2018-09-11T08:33:06.844Z,96490.1
2018-09-11T08:34:09.008Z,96491.2
2018-09-11T08:35:11.173Z,96488.8
2018-09-11T08:36:13.621Z,96492.5
2018-09-11T08:37:16.052Z,96491.3
2018-09-11T08:38:18.481Z,96486.4
2018-09-11T08:39:20.636Z,96486.7
2018-09-11T08:40:23.085Z,96486
2018-09-11T08:41:25.514Z,96484.8
2018-09-11T08:42:27.963Z,96485.5
2018-09-11T08:43:30.409Z,96483.5
2018-09-11T08:44:32.566Z,96481
2018-09-11T08:45:35.016Z,96481.5
2018-09-11T08:46:37.698Z,96486
2018-09-11T08:47:40.252Z,96486.7
2018-09-11T08:48:42.724Z,96487.1
2018-09-11T08:49:45.188Z,96488.4
2018-09-11T08:50:47.647Z,96489.7
2018-09-11T08:51:50.100Z,96489.1
2018-09-11T08:52:52.851Z,96484.7
2018-09-11T08:53:55.068Z,96489.1
2018-09-11T08:54:57.505Z,96484.7
2018-09-11T08:55:59.964Z,96486.2
2018-09-11T08:57:02.426Z,96482.2
2018-09-11T08:58:04.857Z,96486.6
2018-09-11T08:59:07.280Z,96482.1
2018-09-11T09:00:09.726Z,96481.2
2018-09-11T09:01:11.900Z,96480.1
2018-09-11T09:02:14.342Z,96478.9
2018-09-11T09:03:16.800Z,96483.3
2018-09-11T09:04:19.227Z,96480.5
2018-09-11T09:05:21.675Z,96478.7
2018-09-11T09:06:24.098Z,96473.5
2018-09-11T09:07:26.535Z,96475.1
2018-09-11T09:08:28.967Z,96472.8
2018-09-11T09:09:31.433Z,96473.5
2018-09-11T09:10:33.885Z,96472.1
2018-09-11T09:11:36.327Z,96470.8
2018-09-11T09:12:38.771Z,96466.6
2018-09-11T09:13:41.224Z,96467.9
2018-09-11T09:14:43.651Z,96468.7
2018-09-11T09:15:46.610Z,96465.2
2018-09-11T09:16:49.035Z,96465.6
2018-09-11T09:17:51.474Z,96461.4
2018-09-11T09:18:53.922Z,96465.1
2018-09-11T09:19:56.346Z,96465.1
2018-09-11T09:20:59.110Z,96463.4
2018-09-11T09:22:01.696Z,96462
2018-09-11T09:23:04.122Z,96463.1
2018-09-11T09:24:06.557Z,96459.8
2018-09-11T09:25:08.755Z,96461.4
2018-09-11T09:26:11.201Z,96464.3
2018-09-11T09:27:13.903Z,96459.3
2018-09-11T09:28:16.405Z,96458.5
2018-09-11T09:29:18.839Z,96457.1
2018-09-11T09:30:21.272Z,96454.6
2018-09-11T09:31:23.454Z,96456.1
2018-09-11T09:32:25.886Z,96458.1
2018-09-11T09:33:28.343Z,96456.3
2018-09-11T09:34:30.780Z,96457.6
2018-09-11T09:35:33.213Z,96456.8
2018-09-11T09:36:35.877Z,96449.8
2018-09-11T09:37:38.444Z,96458.3
2018-09-11T09:38:40.897Z,96455.5
2018-09-11T09:39:43.327Z,96450.6
2018-09-11T09:40:45.498Z,96450.5
2018-09-11T09:41:47.670Z,96453.7
2018-09-11T09:42:49.854Z,96452.1
2018-09-11T09:43:52.400Z,96451.2
2018-09-11T09:44:54.626Z,96455.5
2018-09-11T09:45:57.074Z,96454.5
2018-09-11T09:46:59.516Z,96454
2018-09-11T09:48:01.402Z,96448.3
2018-09-11T09:49:03.835Z,96448.4
2018-09-11T09:50:06.265Z,96445.3
2018-09-11T09:51:08.708Z,96445.7
2018-09-11T09:52:11.144Z,96444.4
2018-09-11T09:53:13.568Z,96445.7
2018-09-11T09:54:15.999Z,96440
2018-09-11T09:55:18.434Z,96445.1
2018-09-11T09:56:20.872Z,96440.5
2018-09-11T09:57:23.315Z,96441.2
2018-09-11T09:58:25.749Z,96443.3
2018-09-11T09:59:28.187Z,96444.5
2018-09-11T10:00:30.630Z,96440.3
2018-09-11T10:01:33.063Z,96439.7
2018-09-11T10:02:35.535Z,96442.4
2018-09-11T10:03:37.974Z,96439
2018-09-11T10:04:40.494Z,96439.8
2018-09-11T10:05:42.952Z,96442
2018-09-11T10:06:45.122Z,96437.9
2018-09-11T10:07:47.561Z,96439.6
2018-09-11T10:08:49.993Z,96438.6
2018-09-11T10:09:52.436Z,96438.7
2018-09-11T10:10:54.869Z,96438.1
2018-09-11T10:11:57.336Z,96435.4
2018-09-11T10:12:59.783Z,96437.4
2018-09-11T10:14:01.947Z,96434.6
2018-09-11T10:15:04.385Z,96437.4
2018-09-11T10:16:06.853Z,96434
2018-09-11T10:17:09.304Z,96431.7
2018-09-11T10:18:11.744Z,96429.7
2018-09-11T10:19:14.184Z,96427.1
2018-09-11T10:20:16.622Z,96428.2
2018-09-11T10:21:19.061Z,96424.5
2018-09-11T10:22:21.513Z,96428.4
2018-09-11T10:23:23.944Z,96423.9
2018-09-11T10:24:26.392Z,96427.4
2018-09-11T10:25:28.824Z,96423.1
2018-09-11T10:26:31.256Z,96425.9
2018-09-11T10:27:33.845Z,96425
2018-09-11T10:28:36.358Z,96424.3
2018-09-11T10:29:38.506Z,96422.6
2018-09-11T10:30:40.946Z,96423.3
2018-09-11T10:31:43.409Z,96425
2018-09-11T10:32:45.835Z,96424.8
2018-09-11T10:33:48.706Z,96426.9
2018-09-11T10:34:51.267Z,96422.5
2018-09-11T10:35:53.708Z,96424.4
2018-09-11T10:36:56.153Z,96420.3
2018-09-11T10:37:58.613Z,96423.6
2018-09-11T10:39:01.034Z,96420.7
2018-09-11T10:40:03.461Z,96421.8
2018-09-11T10:41:05.884Z,96416.1
2018-09-11T10:42:08.336Z,96414.9
2018-09-11T10:43:10.762Z,96413
2018-09-11T10:44:13.215Z,96410.5
2018-09-11T10:45:15.647Z,96414.3
2018-09-11T10:46:18.096Z,96412.6
2018-09-11T10:47:20.535Z,96413.8
2018-09-11T10:48:22.966Z,96412.1
2018-09-11T10:49:25.105Z,96407.3
2018-09-11T10:50:27.563Z,96409.4
2018-09-11T10:51:29.989Z,96406
2018-09-11T10:52:32.439Z,96407.5
2018-09-11T10:53:34.905Z,96408.2
2018-09-11T10:54:37.081Z,96402.3
2018-09-11T10:55:39.246Z,96402.3
2018-09-11T10:56:41.666Z,96402.6
2018-09-11T10:57:44.122Z,96399.6
2018-09-11T10:58:46.575Z,96405.2
2018-09-11T10:59:49.019Z,96399.4
2018-09-11T11:00:51.459Z,96398.2
2018-09-11T11:01:53.896Z,96393.5
2018-09-11T11:02:56.331Z,96392.4
2018-09-11T11:03:58.774Z,96396.9
2018-09-11T11:05:00.927Z,96390.1
2018-09-11T11:06:03.376Z,96390.9
2018-09-11T11:07:05.831Z,96392.5
2018-09-11T11:08:08.273Z,96387.8
2018-09-11T11:09:10.703Z,96390.3
2018-09-11T11:10:13.151Z,96387.8
2018-09-11T11:11:15.576Z,96387.3
2018-09-11T11:12:18.052Z,96394.2
2018-09-11T11:13:20.482Z,96392.4
2018-09-11T11:14:22.934Z,96392.1
2018-09-11T11:15:25.367Z,96389.3
2018-09-11T11:16:27.815Z,96385.4
2018-09-11T11:17:30.267Z,96385.6
2018-09-11T11:18:32.696Z,96384.2
2018-09-11T11:19:35.127Z,96383.2
2018-09-11T11:20:37.568Z,96383.5
2018-09-11T11:21:40.008Z,96379.7
2018-09-11T11:22:42.439Z,96376.5
2018-09-11T11:23:44.858Z,96379.5
2018-09-11T11:24:47.306Z,96379.9
2018-09-11T11:25:49.745Z,96384.2
2018-09-11T11:26:52.325Z,96374.2
2018-09-11T11:27:54.842Z,96375.4
2018-09-11T11:28:57.277Z,96371.8
2018-09-11T11:29:59.716Z,96377.4
2018-09-11T11:31:02.158Z,96381.4
2018-09-11T11:32:04.608Z,96379.1
2018-09-11T11:33:07.027Z,96379.7
2018-09-11T11:34:08.939Z,96373.8
2018-09-11T11:35:11.366Z,96375.5
2018-09-11T11:36:14.411Z,96372.5
2018-09-11T11:37:17.940Z,96374.2
2018-09-11T11:38:20.747Z,96369
2018-09-11T11:39:23.169Z,96370.5
2018-09-11T11:40:25.319Z,96364.4
2018-09-11T11:41:27.772Z,96367.6
2018-09-11T11:42:30.503Z,96364.4
2018-09-11T11:43:32.963Z,96372.6
2018-09-11T11:44:35.392Z,96363
2018-09-11T11:45:37.845Z,96363.5
2018-09-11T11:46:40.281Z,96368.2
2018-09-11T11:47:42.737Z,96364.3
2018-09-11T11:48:45.215Z,96366.7
2018-09-11T11:49:47.648Z,96362.5
2018-09-11T11:50:50.091Z,96362.7
2018-09-11T11:51:52.523Z,96365.7
2018-09-11T11:52:54.963Z,96362.5
2018-09-11T11:53:57.404Z,96362.4
2018-09-11T11:55:00.189Z,96359.1
2018-09-11T11:56:02.403Z,96358.6
2018-09-11T11:57:04.843Z,96355.4
2018-09-11T11:58:07.311Z,96362.1
2018-09-11T11:59:09.751Z,96360.9
2018-09-11T12:00:12.179Z,96364.6
2018-09-11T12:01:14.617Z,96362.4
2018-09-11T12:02:17.049Z,96358.5
2018-09-11T12:03:19.489Z,96358.3
2018-09-11T12:04:21.920Z,96355.9
2018-09-11T12:05:24.377Z,96357.4
2018-09-11T12:06:26.566Z,96354.6
2018-09-11T12:07:29.002Z,96358.1
2018-09-11T12:08:31.439Z,96355.4
2018-09-11T12:09:33.876Z,96352.6
2018-09-11T12:10:36.026Z,96358.4
2018-09-11T12:11:38.468Z,96352.9
2018-09-11T12:12:40.908Z,96358.8
2018-09-11T12:13:43.353Z,96359
2018-09-11T12:14:45.830Z,96358.2
2018-09-11T12:15:48.257Z,96359
2018-09-11T12:16:50.862Z,96357.7
2018-09-11T12:17:53.354Z,96360.3
2018-09-11T12:18:55.798Z,96361.1
2018-09-11T12:19:58.245Z,96359.4
2018-09-11T12:21:00.726Z,96362.2
2018-09-11T12:22:03.160Z,96360.4
2018-09-11T12:23:05.600Z,96358.9
2018-09-11T12:24:08.053Z,96358.7
2018-09-11T12:25:10.230Z,96358.7
2018-09-11T12:26:12.843Z,96358.4
2018-09-11T12:27:15.452Z,96357.2
2018-09-11T12:28:17.896Z,96355.2
2018-09-11T12:29:20.327Z,96349.8
2018-09-11T12:30:22.756Z,96350.9
2018-09-11T12:31:25.274Z,96352
2018-09-11T12:32:27.727Z,96351.8
2018-09-11T12:33:29.866Z,96349.9
2018-09-11T12:34:32.307Z,96348.5
2018-09-11T12:35:34.757Z,96353.3
2018-09-11T12:36:36.890Z,96349.7
2018-09-11T12:37:39.329Z,96349.9
2018-09-11T12:38:41.778Z,96352.1
2018-09-11T12:39:43.949Z,96349.4